createdAt,value
2023-08-07T00:01:52.241Z,16.93
2023-08-07T00:04:18.645Z,17.08
2023-08-07T00:06:44.991Z,17.07
2023-08-07T00:09:11.343Z,17.19
2023-08-07T00:11:37.688Z,17.09
2023-08-07T00:14:04.126Z,17.00
2023-08-07T00:16:30.503Z,17.24
2023-08-07T00:18:57.517Z,16.78
2023-08-07T00:21:24.479Z,16.86
2023-08-07T00:23:50.947Z,16.98
2023-08-07T00:26:17.519Z,17.22
2023-08-07T00:28:44.712Z,16.93
2023-08-07T00:31:11.176Z,16.99
2023-08-07T00:33:37.575Z,16.78
2023-08-07T00:36:04.239Z,16.84
2023-08-07T00:38:30.592Z,16.94
2023-08-07T00:40:56.943Z,16.80
2023-08-07T00:43:23.292Z,17.00
2023-08-07T00:45:50.082Z,16.91
2023-08-07T00:48:17.656Z,16.92
2023-08-07T00:50:47.561Z,17.17
2023-08-07T00:53:14.644Z,17.00
2023-08-07T00:55:41.319Z,17.10
2023-08-07T00:58:07.653Z,16.78
2023-08-07T01:00:34.008Z,16.80
2023-08-07T01:03:00.607Z,17.17
2023-08-07T01:05:27.420Z,17.05
2023-08-07T01:07:55.862Z,16.62
2023-08-07T01:10:34.238Z,16.61
2023-08-07T01:13:07.566Z,16.65
2023-08-07T01:15:34.863Z,16.89
2023-08-07T01:18:01.528Z,16.94
2023-08-07T01:20:27.889Z,16.58
2023-08-07T01:22:54.272Z,16.69
2023-08-07T01:25:20.666Z,16.54
2023-08-07T01:27:56.082Z,16.60
2023-08-07T01:30:37.280Z,16.55
2023-08-07T01:33:14.197Z,16.59
2023-08-07T01:35:46.544Z,16.74
2023-08-07T01:38:14.080Z,16.52
2023-08-07T01:40:40.645Z,16.22
2023-08-07T01:43:07.037Z,16.15
2023-08-07T01:45:33.486Z,16.17
2023-08-07T01:48:00.576Z,16.50
2023-08-07T01:50:27.083Z,16.44
2023-08-07T01:52:53.616Z,16.39
2023-08-07T01:55:21.462Z,16.50
2023-08-07T01:57:47.819Z,16.60
2023-08-07T02:00:14.329Z,16.02
2023-08-07T02:02:40.745Z,16.31
2023-08-07T02:05:07.594Z,16.26
2023-08-07T02:07:33.945Z,16.04
2023-08-07T02:10:00.313Z,16.28
2023-08-07T02:12:27.874Z,16.41
2023-08-07T02:14:54.360Z,16.29
2023-08-07T02:17:22.788Z,16.22
2023-08-07T02:19:49.159Z,16.16
2023-08-07T02:22:15.612Z,16.40
2023-08-07T02:24:42.005Z,16.19
2023-08-07T02:27:08.371Z,16.19
2023-08-07T02:29:37.616Z,15.99
2023-08-07T02:32:04.912Z,16.31
2023-08-07T02:34:32.156Z,16.23
2023-08-07T02:37:02.114Z,16.06
2023-08-07T02:39:28.465Z,16.30
2023-08-07T02:41:54.809Z,16.78
2023-08-07T02:44:21.752Z,16.38
2023-08-07T02:46:48.215Z,16.43
2023-08-07T02:49:14.559Z,16.52
2023-08-07T02:51:40.950Z,16.10
2023-08-07T02:54:07.339Z,16.14
2023-08-07T02:56:34.007Z,16.23
2023-08-07T02:59:02.534Z,16.23
2023-08-07T03:01:29.661Z,16.25
2023-08-07T03:03:56.004Z,16.32
2023-08-07T03:06:22.397Z,16.61
2023-08-07T03:08:48.749Z,16.44
2023-08-07T03:11:15.105Z,16.21
2023-08-07T03:13:43.065Z,15.99
2023-08-07T03:16:09.749Z,16.09
2023-08-07T03:18:36.980Z,16.35
2023-08-07T03:21:03.435Z,16.15
2023-08-07T03:23:30.220Z,16.41
2023-08-07T03:28:39.861Z,16.28
2023-08-07T03:31:06.791Z,16.30
2023-08-07T03:33:33.349Z,16.09
2023-08-07T03:35:59.706Z,16.38
2023-08-07T03:38:26.709Z,16.69
2023-08-07T03:40:53.065Z,16.39
2023-08-07T03:43:19.448Z,16.50
2023-08-07T03:45:45.835Z,16.71
2023-08-07T03:48:12.201Z,16.56
2023-08-07T03:50:38.779Z,17.19
2023-08-07T03:53:08.136Z,16.47
2023-08-07T03:55:35.565Z,16.56
2023-08-07T03:58:02.246Z,16.48
2023-08-07T04:00:28.826Z,16.32
2023-08-07T04:02:55.320Z,16.38
2023-08-07T04:05:21.720Z,16.23
2023-08-07T04:07:48.121Z,16.51
2023-08-07T04:10:14.547Z,16.34
2023-08-07T04:12:40.956Z,16.23
2023-08-07T04:15:07.966Z,16.41
2023-08-07T04:17:34.375Z,16.46
2023-08-07T04:20:00.811Z,16.85
2023-08-07T04:22:27.210Z,16.25
2023-08-07T04:24:53.569Z,16.35
2023-08-07T04:27:19.921Z,16.11
2023-08-07T04:29:46.320Z,16.66
2023-08-07T04:32:12.681Z,16.37
2023-08-07T04:34:39.075Z,16.75
2023-08-07T04:37:06.360Z,16.41
2023-08-07T04:39:33.245Z,16.43
2023-08-07T04:41:59.618Z,16.49
2023-08-07T04:44:26.075Z,16.73
2023-08-07T04:46:53.510Z,16.29
2023-08-07T04:49:20.144Z,16.49
2023-08-07T04:51:46.497Z,16.78
2023-08-07T04:54:12.852Z,16.92
2023-08-07T04:56:39.232Z,16.54
2023-08-07T04:59:05.593Z,16.92
2023-08-07T05:01:31.948Z,16.54
2023-08-07T05:03:59.030Z,16.61
2023-08-07T05:06:25.696Z,16.28
2023-08-07T05:08:52.042Z,16.67
2023-08-07T05:11:18.425Z,17.09
2023-08-07T05:13:44.765Z,16.66
2023-08-07T05:16:11.137Z,16.64
2023-08-07T05:18:37.623Z,16.64
2023-08-07T05:21:04.158Z,17.28
2023-08-07T05:23:30.545Z,17.14
2023-08-07T05:25:57.033Z,17.15
2023-08-07T05:28:23.390Z,17.16
2023-08-07T05:30:49.825Z,17.15
2023-08-07T05:33:16.608Z,16.94
2023-08-07T05:35:43.607Z,17.00
2023-08-07T05:38:09.999Z,17.00
2023-08-07T05:40:37.723Z,16.36
2023-08-07T05:43:04.152Z,16.30
2023-08-07T05:45:30.547Z,16.32
2023-08-07T05:47:56.930Z,16.58
2023-08-07T05:50:23.298Z,16.71
2023-08-07T05:52:49.661Z,17.35
2023-08-07T05:55:16.036Z,16.76
2023-08-07T05:57:42.469Z,16.63
2023-08-07T06:00:14.913Z,16.98
2023-08-07T06:02:41.331Z,16.63
2023-08-07T06:05:08.334Z,16.58
2023-08-07T06:07:34.752Z,16.95
2023-08-07T06:10:01.132Z,16.90
2023-08-07T06:12:27.466Z,17.17
2023-08-07T06:14:53.862Z,16.94
2023-08-07T06:17:20.356Z,17.12
2023-08-07T06:19:46.816Z,17.19
2023-08-07T06:22:13.162Z,16.78
2023-08-07T06:24:39.511Z,17.00
2023-08-07T06:27:06.194Z,17.40
2023-08-07T06:29:32.544Z,17.38
2023-08-07T06:31:59.138Z,17.41
2023-08-07T06:34:25.707Z,17.34
2023-08-07T06:36:52.220Z,17.04
2023-08-07T06:39:18.598Z,17.04
2023-08-07T06:41:44.987Z,16.58
2023-08-07T06:44:11.380Z,17.20
2023-08-07T06:46:37.733Z,16.55
2023-08-07T06:49:04.175Z,17.12
2023-08-07T06:51:30.621Z,16.85
2023-08-07T06:53:57.042Z,16.93
2023-08-07T06:56:23.399Z,17.22
2023-08-07T06:58:49.845Z,17.20
2023-08-07T07:01:16.271Z,17.23
2023-08-07T07:03:42.693Z,17.50
2023-08-07T07:06:09.575Z,17.64
2023-08-07T07:08:35.940Z,17.55
2023-08-07T07:11:02.407Z,17.51
2023-08-07T07:13:28.804Z,17.70
2023-08-07T07:15:56.099Z,17.93
2023-08-07T07:18:22.640Z,17.41
2023-08-07T07:20:49.043Z,17.64
2023-08-07T07:23:15.405Z,17.78
2023-08-07T07:25:41.757Z,17.77
2023-08-07T07:28:08.103Z,17.43
2023-08-07T07:30:34.492Z,17.68
2023-08-07T07:33:00.917Z,18.48
2023-08-07T07:35:28.477Z,18.10
2023-08-07T07:37:54.835Z,18.28
2023-08-07T07:40:21.236Z,18.02
2023-08-07T07:42:47.568Z,17.89
2023-08-07T07:45:13.938Z,18.71
2023-08-07T07:47:40.281Z,18.42
2023-08-07T07:50:09.888Z,17.70
2023-08-07T07:52:36.252Z,18.11
2023-08-07T07:55:03.073Z,17.97
2023-08-07T07:57:29.538Z,18.77
2023-08-07T07:59:55.985Z,18.46
2023-08-07T08:02:23.516Z,17.70
2023-08-07T08:04:50.134Z,17.99
2023-08-07T08:07:16.645Z,17.70
2023-08-07T08:09:43.089Z,17.86
2023-08-07T08:12:09.851Z,18.61
2023-08-07T08:14:50.501Z,18.18
2023-08-07T08:17:21.924Z,18.77
2023-08-07T08:19:50.916Z,18.29
2023-08-07T08:22:17.992Z,18.07
2023-08-07T08:24:44.328Z,18.38
2023-08-07T08:27:10.764Z,19.07
2023-08-07T08:29:37.239Z,18.84
2023-08-07T08:32:03.744Z,19.14
2023-08-07T08:34:30.315Z,18.59
2023-08-07T08:36:56.814Z,18.51
2023-08-07T08:39:23.427Z,18.48
2023-08-07T08:41:50.989Z,18.39
2023-08-07T08:44:18.318Z,19.32
2023-08-07T08:46:45.492Z,19.43
2023-08-07T08:49:12.256Z,18.73
2023-08-07T08:51:38.616Z,18.13
2023-08-07T08:54:05.038Z,19.26
2023-08-07T08:56:32.236Z,19.74
2023-08-07T08:58:59.008Z,19.22
2023-08-07T09:01:26.823Z,19.46
2023-08-07T09:03:54.855Z,19.07
2023-08-07T09:06:21.409Z,20.35
2023-08-07T09:08:48.378Z,19.61
2023-08-07T09:11:14.864Z,19.41
2023-08-07T09:13:41.836Z,19.80
2023-08-07T09:16:09.868Z,19.36
2023-08-07T09:18:36.674Z,19.09
2023-08-07T09:21:03.355Z,19.69
2023-08-07T09:23:29.869Z,19.08
2023-08-07T09:26:06.410Z,19.77
2023-08-07T09:28:33.559Z,18.87
2023-08-07T09:31:00.322Z,19.10
2023-08-07T09:33:28.027Z,18.99
2023-08-07T09:35:59.148Z,18.88
2023-08-07T09:38:29.292Z,19.33
2023-08-07T09:40:58.889Z,20.32
2023-08-07T09:43:25.297Z,20.14
2023-08-07T09:45:51.785Z,19.42
2023-08-07T09:48:29.056Z,18.70
2023-08-07T09:50:59.772Z,19.04
2023-08-07T09:53:27.736Z,18.12
2023-08-07T09:55:54.572Z,18.70
2023-08-07T09:58:20.994Z,17.94
2023-08-07T10:00:49.154Z,17.97
2023-08-07T10:03:15.905Z,18.81
2023-08-07T10:05:43.476Z,18.80
2023-08-07T10:08:11.573Z,18.30
2023-08-07T10:10:38.487Z,18.57
2023-08-07T10:13:05.782Z,18.66
2023-08-07T10:15:33.613Z,18.93
2023-08-07T10:18:00.187Z,18.54
2023-08-07T10:20:28.732Z,18.71
2023-08-07T10:22:58.584Z,19.08
2023-08-07T10:25:25.379Z,19.39
2023-08-07T10:27:53.764Z,18.20
2023-08-07T10:30:21.324Z,18.58
2023-08-07T10:32:49.453Z,18.13
2023-08-07T10:35:26.464Z,18.57
2023-08-07T10:37:54.913Z,19.32
2023-08-07T10:40:22.386Z,19.03
2023-08-07T10:42:55.842Z,19.47
2023-08-07T10:45:23.922Z,18.44
2023-08-07T10:48:03.192Z,18.11
2023-08-07T10:50:31.475Z,18.97
2023-08-07T10:52:58.185Z,18.51
2023-08-07T10:55:25.533Z,18.10
2023-08-07T10:57:51.901Z,18.78
2023-08-07T11:00:18.864Z,19.13
2023-08-07T11:02:49.185Z,18.62
2023-08-07T11:05:15.662Z,17.78
2023-08-07T11:07:42.746Z,17.88
2023-08-07T11:10:09.735Z,17.34
2023-08-07T11:12:37.357Z,18.19
2023-08-07T11:15:04.017Z,17.97
2023-08-07T11:17:30.617Z,18.12
2023-08-07T11:19:57.449Z,17.81
2023-08-07T11:22:24.023Z,18.07
2023-08-07T11:24:51.861Z,18.58
2023-08-07T11:27:18.270Z,18.63
2023-08-07T11:29:49.152Z,18.04
2023-08-07T11:32:15.737Z,17.94
2023-08-07T11:34:49.237Z,17.72
2023-08-07T11:37:18.961Z,18.08
2023-08-07T11:39:45.648Z,18.30
2023-08-07T11:42:12.108Z,18.30
2023-08-07T11:44:38.474Z,18.92
2023-08-07T11:47:05.765Z,18.56
2023-08-07T11:49:33.165Z,18.88
2023-08-07T11:51:59.613Z,19.29
2023-08-07T11:54:27.135Z,18.42
2023-08-07T11:56:53.468Z,18.37
2023-08-07T11:59:20.083Z,18.54
2023-08-07T12:01:46.993Z,18.68
2023-08-07T12:04:14.281Z,19.18
2023-08-07T12:06:54.038Z,19.36
2023-08-07T12:09:20.566Z,18.96
2023-08-07T12:11:46.920Z,18.88
2023-08-07T12:14:18.199Z,19.64
2023-08-07T12:16:46.791Z,20.21
2023-08-07T12:19:14.001Z,19.84
2023-08-07T12:21:40.513Z,20.03
2023-08-07T12:24:08.405Z,18.86
2023-08-07T12:26:34.830Z,19.09
2023-08-07T12:29:02.303Z,19.13
2023-08-07T12:31:28.705Z,18.96
2023-08-07T12:33:55.835Z,19.83
2023-08-07T12:36:22.447Z,19.33
2023-08-07T12:38:49.098Z,19.01
2023-08-07T12:43:45.002Z,19.56
2023-08-07T12:48:40.596Z,20.44
2023-08-07T12:51:06.997Z,19.73
2023-08-07T12:53:33.420Z,19.90
2023-08-07T12:55:59.856Z,19.96
2023-08-07T12:58:28.736Z,19.59
2023-08-07T13:00:55.325Z,19.85
2023-08-07T13:03:22.122Z,19.68
2023-08-07T13:05:48.568Z,19.25
2023-08-07T13:08:15.311Z,20.29
2023-08-07T13:10:41.669Z,19.54
2023-08-07T13:13:08.068Z,19.26
2023-08-07T13:15:34.533Z,18.32
2023-08-07T13:18:01.787Z,18.38
2023-08-07T13:20:28.394Z,19.24
2023-08-07T13:22:54.824Z,20.61
2023-08-07T13:25:21.525Z,18.79
2023-08-07T13:27:47.913Z,18.85
2023-08-07T13:30:14.343Z,18.36
2023-08-07T13:32:41.161Z,19.22
2023-08-07T13:35:07.954Z,18.74
2023-08-07T13:37:34.720Z,18.40
2023-08-07T13:40:01.288Z,18.67
2023-08-07T13:42:28.587Z,18.46
2023-08-07T13:44:56.763Z,18.85
2023-08-07T13:47:23.257Z,19.05
2023-08-07T13:49:49.706Z,18.54
2023-08-07T13:52:16.488Z,18.22
2023-08-07T13:54:43.019Z,18.41
2023-08-07T13:57:09.369Z,19.00
2023-08-07T13:59:35.734Z,18.64
2023-08-07T14:02:02.317Z,18.45
2023-08-07T14:04:28.795Z,19.52
2023-08-07T14:06:55.146Z,17.84
2023-08-07T14:09:23.059Z,17.81
2023-08-07T14:11:50.462Z,17.98
2023-08-07T14:14:17.198Z,17.58
2023-08-07T14:16:44.173Z,17.71
2023-08-07T14:19:10.805Z,18.16
2023-08-07T14:21:37.212Z,17.90
2023-08-07T14:24:03.868Z,18.04
2023-08-07T14:26:30.375Z,17.84
2023-08-07T14:28:56.738Z,18.03
2023-08-07T14:31:23.194Z,18.16
2023-08-07T14:33:50.003Z,18.31
2023-08-07T14:36:16.794Z,17.80
2023-08-07T14:38:43.219Z,17.56
2023-08-07T14:41:09.633Z,17.58
2023-08-07T14:43:36.131Z,17.57
2023-08-07T14:46:02.614Z,17.44
2023-08-07T14:48:29.185Z,17.05
2023-08-07T14:50:57.222Z,17.45
2023-08-07T14:53:23.793Z,17.51
2023-08-07T14:55:50.209Z,17.33
2023-08-07T14:58:16.549Z,18.10
2023-08-07T15:00:43.056Z,17.98
2023-08-07T15:03:09.492Z,17.82
2023-08-07T15:05:35.977Z,18.06
2023-08-07T15:08:02.886Z,18.30
2023-08-07T15:10:29.777Z,18.07
2023-08-07T15:12:57.069Z,17.92
2023-08-07T15:15:23.770Z,17.50
2023-08-07T15:17:50.220Z,17.87
2023-08-07T15:20:16.825Z,17.68
2023-08-07T15:22:43.215Z,17.73
2023-08-07T15:25:09.933Z,17.66
2023-08-07T15:27:36.305Z,18.26
2023-08-07T15:30:03.005Z,18.43
2023-08-07T15:32:29.385Z,18.29
2023-08-07T15:34:55.777Z,18.55
2023-08-07T15:37:22.126Z,17.70
2023-08-07T15:39:48.498Z,17.69
2023-08-07T15:42:14.857Z,17.65
2023-08-07T15:44:41.287Z,16.69
2023-08-07T15:47:07.703Z,16.78
2023-08-07T15:49:34.123Z,17.17
2023-08-07T15:52:00.508Z,16.87
2023-08-07T15:54:26.918Z,16.48
2023-08-07T15:56:53.462Z,16.62
2023-08-07T15:59:19.862Z,17.23
2023-08-07T16:01:46.252Z,16.85
2023-08-07T16:04:12.866Z,17.24
2023-08-07T16:06:40.871Z,17.38
2023-08-07T16:09:08.935Z,17.85
2023-08-07T16:11:35.368Z,17.68
2023-08-07T16:14:01.847Z,17.73
2023-08-07T16:16:28.380Z,17.80
2023-08-07T16:18:54.892Z,17.46
2023-08-07T16:21:21.286Z,17.92
2023-08-07T16:23:47.663Z,17.83
2023-08-07T16:26:14.080Z,17.53
2023-08-07T16:28:40.501Z,17.51
2023-08-07T16:31:06.884Z,17.58
2023-08-07T16:33:33.291Z,17.74
2023-08-07T16:36:00.172Z,17.53
2023-08-07T16:38:26.540Z,17.31
2023-08-07T16:40:52.888Z,17.29
2023-08-07T16:43:19.240Z,17.43
2023-08-07T16:45:45.640Z,16.78
2023-08-07T16:48:12.531Z,17.34
2023-08-07T16:50:39.493Z,17.53
2023-08-07T16:53:08.039Z,17.35
2023-08-07T16:55:34.411Z,17.21
2023-08-07T16:58:00.782Z,17.38
2023-08-07T17:00:27.179Z,17.87
2023-08-07T17:02:53.612Z,17.18
2023-08-07T17:05:23.017Z,16.81
2023-08-07T17:07:49.416Z,17.44
2023-08-07T17:10:17.299Z,17.77
2023-08-07T17:12:43.949Z,17.49
2023-08-07T17:15:10.732Z,17.14
2023-08-07T17:17:37.272Z,17.10
2023-08-07T17:20:04.976Z,17.23
2023-08-07T17:22:31.588Z,17.16
2023-08-07T17:24:59.252Z,17.41
2023-08-07T17:27:25.636Z,16.92
2023-08-07T17:29:52.128Z,17.20
2023-08-07T17:32:18.561Z,16.79
2023-08-07T17:34:44.976Z,16.88
2023-08-07T17:37:11.389Z,16.65
2023-08-07T17:39:37.762Z,16.78
2023-08-07T17:42:04.551Z,17.00
2023-08-07T17:44:33.996Z,17.11
2023-08-07T17:47:00.996Z,16.94
2023-08-07T17:49:29.083Z,17.08
2023-08-07T17:51:55.669Z,17.24
2023-08-07T17:54:22.134Z,17.46
2023-08-07T17:56:50.029Z,17.11
2023-08-07T17:59:16.458Z,16.84
2023-08-07T18:01:42.881Z,16.93
2023-08-07T18:04:10.140Z,16.78
2023-08-07T18:06:36.622Z,16.77
2023-08-07T18:09:03.055Z,17.10
2023-08-07T18:11:29.507Z,16.99
2023-08-07T18:13:56.000Z,16.60
2023-08-07T18:16:24.001Z,16.49
2023-08-07T18:18:50.504Z,16.71
2023-08-07T18:21:18.797Z,16.58
2023-08-07T18:23:45.143Z,16.34
2023-08-07T18:26:11.656Z,16.16
2023-08-07T18:28:39.423Z,15.77
2023-08-07T18:31:07.007Z,15.32
2023-08-07T18:33:34.549Z,14.97
2023-08-07T18:36:01.343Z,15.30
2023-08-07T18:38:28.152Z,14.82
2023-08-07T18:40:54.625Z,14.98
2023-08-07T18:43:21.109Z,15.29
2023-08-07T18:45:47.551Z,15.31
2023-08-07T18:48:14.046Z,15.52
2023-08-07T18:50:41.979Z,15.54
2023-08-07T18:53:09.040Z,15.23
2023-08-07T18:55:35.457Z,15.28
2023-08-07T18:58:02.265Z,15.50
2023-08-07T19:00:28.628Z,15.64
2023-08-07T19:02:55.120Z,15.18
2023-08-07T19:05:21.567Z,15.73
2023-08-07T19:07:47.910Z,15.81
2023-08-07T19:10:14.317Z,15.54
2023-08-07T19:12:40.695Z,15.98
2023-08-07T19:15:09.510Z,15.70
2023-08-07T19:17:35.898Z,16.25
2023-08-07T19:20:02.397Z,15.44
2023-08-07T19:22:28.848Z,15.89
2023-08-07T19:24:55.212Z,15.77
2023-08-07T19:27:21.576Z,15.91
2023-08-07T19:29:47.926Z,15.51
2023-08-07T19:32:15.400Z,15.35
2023-08-07T19:34:41.794Z,14.80
2023-08-07T19:37:08.300Z,15.00
2023-08-07T19:39:34.721Z,14.94
2023-08-07T19:42:01.174Z,14.61
2023-08-07T19:44:27.680Z,14.78
2023-08-07T19:46:54.112Z,14.76
2023-08-07T19:49:20.450Z,14.72
2023-08-07T19:51:47.034Z,14.65
2023-08-07T19:54:13.440Z,14.81
2023-08-07T19:56:39.819Z,15.00
2023-08-07T19:59:06.452Z,15.08
2023-08-07T20:01:33.127Z,15.14
2023-08-07T20:04:00.054Z,15.14
2023-08-07T20:06:26.636Z,15.17
2023-08-07T20:08:53.064Z,15.14
2023-08-07T20:11:19.431Z,15.42
2023-08-07T20:13:46.303Z,14.95
2023-08-07T20:16:12.809Z,14.85
2023-08-07T20:18:39.320Z,15.04
2023-08-07T20:21:05.679Z,14.80
2023-08-07T20:23:32.007Z,15.03
2023-08-07T20:25:58.658Z,14.84
2023-08-07T20:28:25.036Z,15.08
2023-08-07T20:30:51.521Z,15.00
2023-08-07T20:33:18.124Z,15.25
2023-08-07T20:35:44.566Z,15.17
2023-08-07T20:38:10.944Z,14.95
2023-08-07T20:40:37.378Z,15.65
2023-08-07T20:43:03.906Z,15.72
2023-08-07T20:45:30.288Z,16.03
2023-08-07T20:47:56.671Z,15.56
2023-08-07T20:50:23.098Z,15.63
2023-08-07T20:52:49.510Z,15.31
2023-08-07T20:55:15.871Z,16.04
2023-08-07T20:57:42.275Z,15.82
2023-08-07T21:00:09.827Z,15.63
2023-08-07T21:02:36.273Z,15.84
2023-08-07T21:05:02.714Z,16.09
2023-08-07T21:07:29.234Z,16.15
2023-08-07T21:09:55.660Z,15.47
2023-08-07T21:12:21.999Z,15.27
2023-08-07T21:14:48.354Z,15.61
2023-08-07T21:17:15.165Z,15.71
2023-08-07T21:19:41.799Z,15.27
2023-08-07T21:22:08.462Z,15.90
2023-08-07T21:24:35.548Z,16.22
2023-08-07T21:27:02.049Z,15.79
2023-08-07T21:29:28.699Z,16.18
2023-08-07T21:31:55.636Z,16.04
2023-08-07T21:34:22.333Z,16.53
2023-08-07T21:36:49.024Z,15.69
2023-08-07T21:39:15.807Z,15.54
2023-08-07T21:41:42.138Z,15.91
2023-08-07T21:44:08.527Z,15.82
2023-08-07T21:46:34.908Z,15.79
2023-08-07T21:49:01.685Z,15.75
2023-08-07T21:51:29.512Z,16.15
2023-08-07T21:53:55.923Z,15.69
2023-08-07T21:56:22.281Z,16.32
2023-08-07T21:58:48.885Z,16.19
2023-08-07T22:01:15.253Z,16.24
2023-08-07T22:03:41.731Z,15.78
2023-08-07T22:06:08.163Z,15.90
2023-08-07T22:08:34.498Z,15.77
2023-08-07T22:11:01.504Z,15.83
2023-08-07T22:13:27.853Z,15.86
2023-08-07T22:15:54.726Z,16.26
2023-08-07T22:18:21.224Z,15.79
2023-08-07T22:20:47.629Z,15.73
2023-08-07T22:23:14.142Z,16.00
2023-08-07T22:25:40.507Z,15.91
2023-08-07T22:28:08.016Z,16.03
2023-08-07T22:30:35.022Z,15.67
2023-08-07T22:33:03.587Z,15.90
2023-08-07T22:35:31.004Z,15.84
2023-08-07T22:37:57.839Z,16.35
2023-08-07T22:40:24.262Z,16.03
2023-08-07T22:42:50.654Z,15.74
2023-08-07T22:45:17.091Z,15.97
2023-08-07T22:47:43.445Z,16.19
2023-08-07T22:50:10.028Z,15.96
2023-08-07T22:52:36.377Z,16.25
2023-08-07T22:55:03.694Z,16.08
2023-08-07T22:57:30.061Z,16.06
2023-08-07T22:59:56.945Z,16.56
2023-08-07T23:02:23.376Z,16.17
2023-08-07T23:04:49.755Z,16.38
2023-08-07T23:07:16.880Z,16.21
2023-08-07T23:09:43.241Z,16.53
2023-08-07T23:12:10.069Z,16.73
2023-08-07T23:14:36.417Z,16.71
2023-08-07T23:17:05.121Z,16.66
2023-08-07T23:19:32.264Z,16.92
2023-08-07T23:21:59.006Z,16.61
2023-08-07T23:24:25.531Z,16.24
2023-08-07T23:26:51.888Z,16.47
2023-08-07T23:29:18.372Z,16.38
2023-08-07T23:31:44.747Z,16.44
2023-08-07T23:34:11.217Z,16.43
2023-08-07T23:36:37.563Z,16.29
2023-08-07T23:39:04.026Z,16.42
2023-08-07T23:41:30.395Z,16.67
2023-08-07T23:43:56.767Z,16.49
2023-08-07T23:46:23.221Z,16.52
2023-08-07T23:48:49.842Z,16.59
2023-08-07T23:51:16.194Z,16.59
2023-08-07T23:53:42.562Z,16.67
2023-08-07T23:56:09.011Z,16.97
2023-08-07T23:58:35.531Z,16.94
